Rio Bravo, Texas
Current Conditions -  °F | °C
As of 1:56 PM on Sunday 23 Nov 2014 (Local Time) from KLRD Reporting Station
Clear Clear  
Wind Chill: 85°   Ceiling: Unl
Heat Index: 85°   Visibility: 10mi
Dew Point: 48°   Wind: 12mph
Humidity: 27%   Direction: 200°SSW
Pressure: 29.66"   Gusts: NA
Location:  27.4721°N, 99.1091°W
Report Text: KLRD 231956Z 20010KT 10SM CLR 29/09 A2966 RMK AO2 T02940088 SLP033
Loading
Personal Weather Stations






























Interactive Weather Map New forecast layout! Learn more

10-Day Weather Forecast

Advertisements
Track Severe Weather on mobile